Time;durP1;ratioP1;P1;durP2;ratioP2;P2;SDS_P1;SDS_P2;PMS_P1;PMS_P2;Temp;Humidity;BMP_temperature;BMP_pressure;BME280_temperature;BME280_humidity;BME280_pressure;Samples;Min_cycle;Max_cycle;Signal;HPM_P1;HPM_P2
2021/10/04 00:03:14;;;;;;;;;;;9.80;99.90;;;;;;5065467;28;20021;-83
2021/10/04 00:08:46;;;;;;;;;;;9.90;99.90;;;;;;5058033;28;19936;-83
2021/10/04 00:11:19;;;;;;;;;;;9.90;99.90;;;;;;5055081;28;20402;-85
2021/10/04 00:13:48;;;;;;;;;;;9.90;99.90;;;;;;5055092;28;20426;-84
2021/10/04 00:16:15;;;;;;;;;;;9.90;99.90;;;;;;5054778;28;19935;-84
2021/10/04 00:18:44;;;;;;;;;;;9.90;99.90;;;;;;5054556;28;19935;-85
2021/10/04 00:21:12;;;;;;;;;;;10.00;99.90;;;;;;5054690;28;19935;-85
2021/10/04 00:23:40;;;;;;;;;;;10.00;99.90;;;;;;5054497;28;19935;-85
2021/10/04 00:29:12;;;;;;;;;;;10.10;99.90;;;;;;5055372;28;19928;-84
2021/10/04 00:31:40;;;;;;;;;;;10.10;99.90;;;;;;5054450;28;19990;-86
2021/10/04 00:34:08;;;;;;;;;;;10.10;99.90;;;;;;5055382;28;19935;-85
2021/10/04 00:36:37;;;;;;;;;;;10.10;99.90;;;;;;5058298;28;19924;-76
2021/10/04 00:39:05;;;;;;;;;;;10.10;99.90;;;;;;5059116;28;19925;-78
2021/10/04 00:41:32;;;;;;;;;;;10.10;99.90;;;;;;5059709;28;19925;-77
2021/10/04 00:44:00;;;;;;;;;;;10.20;99.90;;;;;;5058207;28;19925;-77
2021/10/04 00:46:29;;;;;;;;;;;10.20;99.90;;;;;;5058146;28;19939;-78
2021/10/04 00:48:57;;;;;;;;;;;10.20;99.90;;;;;;5058056;28;19924;-78
2021/10/04 00:51:27;;;;;;;;;;;10.20;99.90;;;;;;5058167;28;19925;-77
2021/10/04 00:53:55;;;;;;;;;;;10.20;99.90;;;;;;5057740;28;20493;-77
2021/10/04 00:56:24;;;;;;;;;;;10.20;99.90;;;;;;5057706;28;19925;-78
2021/10/04 00:58:52;;;;;;;;;;;10.10;99.90;;;;;;5057798;28;19925;-77
2021/10/04 01:01:18;;;;;;;;;;;10.10;99.90;;;;;;5057708;28;19924;-78
2021/10/04 01:03:48;;;;;;;;;;;10.00;99.90;;;;;;5057672;28;19924;-77
2021/10/04 01:06:15;;;;;;;;;;;10.00;99.90;;;;;;5057899;28;19925;-77
2021/10/04 01:08:43;;;;;;;;;;;9.90;99.90;;;;;;5057693;28;20420;-77
2021/10/04 01:11:11;;;;;;;;;;;9.90;99.90;;;;;;5057622;28;19925;-77
2021/10/04 01:13:40;;;;;;;;;;;9.90;99.90;;;;;;5057667;28;19925;-77
2021/10/04 01:16:08;;;;;;;;;;;9.80;99.90;;;;;;5057505;28;19947;-77
2021/10/04 01:18:36;;;;;;;;;;;9.80;99.90;;;;;;5057811;28;20347;-78
2021/10/04 01:21:05;;;;;;;;;;;9.80;99.90;;;;;;5057613;28;19935;-77
2021/10/04 01:23:33;;;;;;;;;;;9.80;99.90;;;;;;5057409;28;19925;-77
2021/10/04 01:26:01;;;;;;;;;;;9.80;99.90;;;;;;5057529;28;20262;-77
2021/10/04 01:28:28;;;;;;;;;;;9.80;99.90;;;;;;5057269;28;20350;-77
2021/10/04 01:30:55;;;;;;;;;;;9.80;99.90;;;;;;5057204;28;19944;-77
2021/10/04 01:33:22;;;;;;;;;;;9.80;99.90;;;;;;5057241;28;19936;-77
2021/10/04 01:35:48;;;;;;;;;;;9.80;99.90;;;;;;5056899;28;19935;-77
2021/10/04 01:38:17;;;;;;;;;;;9.80;99.90;;;;;;5057300;28;19935;-77
2021/10/04 01:40:45;;;;;;;;;;;9.70;99.90;;;;;;5056971;28;20349;-78
2021/10/04 01:43:12;;;;;;;;;;;9.70;99.90;;;;;;5057145;28;19925;-77
2021/10/04 01:45:39;;;;;;;;;;;9.70;99.90;;;;;;5056663;28;19924;-77
2021/10/04 01:48:06;;;;;;;;;;;9.70;99.90;;;;;;5057297;28;19925;-77
2021/10/04 01:50:33;;;;;;;;;;;9.70;99.90;;;;;;5057031;28;19931;-77
2021/10/04 01:53:00;;;;;;;;;;;9.70;99.90;;;;;;5048524;28;19925;-77
2021/10/04 01:55:28;;;;;;;;;;;9.70;99.90;;;;;;5056431;28;19939;-77
2021/10/04 01:57:55;;;;;;;;;;;9.70;99.90;;;;;;5056714;28;19935;-77
2021/10/04 02:00:22;;;;;;;;;;;9.70;99.90;;;;;;5056911;28;19924;-78
2021/10/04 02:02:49;;;;;;;;;;;9.70;99.90;;;;;;5056786;28;19931;-77
2021/10/04 02:05:16;;;;;;;;;;;9.70;99.90;;;;;;5056757;28;19936;-77
2021/10/04 02:07:43;;;;;;;;;;;9.70;99.90;;;;;;5056640;28;19925;-77
2021/10/04 02:10:10;;;;;;;;;;;9.70;99.90;;;;;;5056572;28;20015;-77
2021/10/04 02:12:38;;;;;;;;;;;9.70;99.90;;;;;;5056366;28;20367;-77
2021/10/04 02:15:09;;;;;;;;;;;9.70;99.90;;;;;;5056279;28;19928;-77
2021/10/04 02:17:37;;;;;;;;;;;9.60;99.90;;;;;;5056358;28;19936;-77
2021/10/04 02:20:06;;;;;;;;;;;9.60;99.90;;;;;;5056387;28;19935;-77
2021/10/04 02:22:33;;;;;;;;;;;9.60;99.90;;;;;;5056255;28;19929;-77
2021/10/04 02:25:01;;;;;;;;;;;9.60;99.90;;;;;;5056087;28;19924;-77
2021/10/04 02:27:30;;;;;;;;;;;9.60;99.90;;;;;;5056229;28;19935;-77
2021/10/04 02:29:59;;;;;;;;;;;9.70;99.90;;;;;;5056425;28;19929;-77
2021/10/04 02:32:27;;;;;;;;;;;9.60;99.90;;;;;;5056390;28;19935;-77
2021/10/04 02:34:55;;;;;;;;;;;9.60;99.90;;;;;;5056140;28;19939;-77
2021/10/04 02:37:22;;;;;;;;;;;9.70;99.90;;;;;;5056008;28;19924;-77
2021/10/04 02:39:49;;;;;;;;;;;9.70;99.90;;;;;;5056078;28;20377;-77
2021/10/04 02:42:15;;;;;;;;;;;9.70;99.90;;;;;;5054742;28;19935;-77
2021/10/04 02:44:42;;;;;;;;;;;9.70;99.90;;;;;;5051155;28;19987;-77
2021/10/04 02:47:10;;;;;;;;;;;9.80;99.90;;;;;;5033662;28;19936;-77
2021/10/04 02:49:38;;;;;;;;;;;9.70;99.90;;;;;;5036004;28;19929;-77
2021/10/04 02:52:05;;;;;;;;;;;9.70;99.90;;;;;;5035723;28;20415;-77
2021/10/04 02:54:32;;;;;;;;;;;9.70;99.90;;;;;;5035597;28;20027;-77
2021/10/04 02:56:59;;;;;;;;;;;9.70;99.90;;;;;;5035116;28;20039;-77
2021/10/04 02:59:26;;;;;;;;;;;9.70;99.90;;;;;;5035755;28;19925;-77
2021/10/04 03:01:54;;;;;;;;;;;9.70;99.90;;;;;;5035581;28;20016;-77
2021/10/04 03:04:23;;;;;;;;;;;9.70;99.90;;;;;;5035431;28;19960;-77
2021/10/04 03:06:50;;;;;;;;;;;9.70;99.90;;;;;;5035410;28;19967;-78
2021/10/04 03:09:20;;;;;;;;;;;9.70;99.90;;;;;;5035505;28;20025;-77
2021/10/04 03:11:47;;;;;;;;;;;9.80;99.90;;;;;;5035671;28;20024;-77
2021/10/04 03:14:14;;;;;;;;;;;9.80;99.90;;;;;;5035343;28;19924;-77
2021/10/04 03:16:41;;;;;;;;;;;9.80;99.90;;;;;;5035169;28;20263;-77
2021/10/04 03:19:08;;;;;;;;;;;9.80;99.90;;;;;;5035488;28;20338;-77
2021/10/04 03:21:36;;;;;;;;;;;9.80;99.90;;;;;;5035147;28;19929;-77
2021/10/04 03:24:03;;;;;;;;;;;9.80;99.90;;;;;;5035444;28;19925;-77
2021/10/04 03:26:30;;;;;;;;;;;9.80;99.90;;;;;;5034371;28;19936;-78
2021/10/04 03:28:57;;;;;;;;;;;9.80;99.90;;;;;;5035479;28;19941;-77
2021/10/04 03:31:24;;;;;;;;;;;9.80;99.90;;;;;;5035328;28;19924;-77
2021/10/04 03:33:51;;;;;;;;;;;9.80;99.90;;;;;;5035166;28;19925;-77
2021/10/04 03:36:18;;;;;;;;;;;9.90;99.90;;;;;;5035017;28;20275;-77
2021/10/04 03:38:47;;;;;;;;;;;9.80;99.90;;;;;;5034927;28;19924;-77
2021/10/04 03:41:15;;;;;;;;;;;9.80;99.90;;;;;;5034939;28;19925;-77
2021/10/04 03:43:42;;;;;;;;;;;9.80;99.90;;;;;;5035053;28;19936;-77
2021/10/04 03:46:10;;;;;;;;;;;9.80;99.90;;;;;;5034975;28;19936;-77
2021/10/04 03:48:39;;;;;;;;;;;9.80;99.90;;;;;;5035013;28;20256;-77
2021/10/04 03:51:07;;;;;;;;;;;9.80;99.90;;;;;;5034903;28;20347;-77
2021/10/04 03:53:35;;;;;;;;;;;9.80;99.90;;;;;;5035102;28;19925;-77
2021/10/04 03:56:03;;;;;;;;;;;9.80;99.90;;;;;;5034911;28;19936;-77
2021/10/04 03:58:30;;;;;;;;;;;9.80;99.90;;;;;;5034984;28;20339;-77
2021/10/04 04:01:01;;;;;;;;;;;9.80;99.90;;;;;;5034775;28;19932;-77
2021/10/04 04:03:28;;;;;;;;;;;9.80;99.90;;;;;;5034841;28;19929;-77
2021/10/04 04:05:56;;;;;;;;;;;9.90;99.90;;;;;;5034950;28;20247;-77
2021/10/04 04:08:24;;;;;;;;;;;9.90;99.90;;;;;;5036165;28;20020;-77
2021/10/04 04:10:53;;;;;;;;;;;9.90;99.90;;;;;;5039004;28;19925;-78
2021/10/04 04:13:22;;;;;;;;;;;10.00;99.90;;;;;;5038826;28;19935;-77
2021/10/04 04:15:50;;;;;;;;;;;9.90;99.90;;;;;;5038680;28;19925;-77
2021/10/04 04:18:18;;;;;;;;;;;9.90;99.90;;;;;;5038593;28;19940;-77
2021/10/04 04:20:48;;;;;;;;;;;10.00;99.90;;;;;;5038763;28;19925;-78
2021/10/04 04:23:16;;;;;;;;;;;10.00;99.90;;;;;;5038595;28;19951;-77
2021/10/04 04:25:43;;;;;;;;;;;9.90;99.90;;;;;;5038423;28;19924;-77
2021/10/04 04:28:09;;;;;;;;;;;9.90;99.90;;;;;;5038132;28;19925;-77
2021/10/04 04:30:38;;;;;;;;;;;9.90;99.90;;;;;;5038648;28;19929;-77
2021/10/04 04:33:06;;;;;;;;;;;9.80;99.90;;;;;;5037254;28;19925;-77
2021/10/04 04:35:33;;;;;;;;;;;9.80;99.90;;;;;;5038258;28;19925;-77
2021/10/04 04:37:59;;;;;;;;;;;9.80;99.90;;;;;;5038523;28;19925;-77
2021/10/04 04:40:26;;;;;;;;;;;9.80;99.90;;;;;;5038185;28;20359;-77
2021/10/04 04:42:53;;;;;;;;;;;9.70;99.90;;;;;;5038358;28;19925;-77
2021/10/04 04:45:20;;;;;;;;;;;9.70;99.90;;;;;;5038146;28;19932;-77
2021/10/04 04:47:48;;;;;;;;;;;9.70;99.90;;;;;;5038515;28;19935;-77
2021/10/04 04:50:15;;;;;;;;;;;9.60;99.90;;;;;;5038067;28;19935;-77
2021/10/04 04:52:42;;;;;;;;;;;9.60;99.90;;;;;;5038111;28;20347;-77
2021/10/04 04:55:09;;;;;;;;;;;9.60;99.90;;;;;;5038156;28;19925;-77
2021/10/04 04:57:36;;;;;;;;;;;9.60;99.90;;;;;;5037934;28;20255;-77
2021/10/04 05:00:05;;;;;;;;;;;9.60;99.90;;;;;;5038188;28;19932;-77
2021/10/04 05:02:36;;;;;;;;;;;9.60;99.90;;;;;;5038137;28;20271;-77
2021/10/04 05:05:13;;;;;;;;;;;9.50;99.90;;;;;;5037805;28;19925;-77
2021/10/04 05:07:41;;;;;;;;;;;9.50;99.90;;;;;;5037763;28;20251;-77
2021/10/04 05:10:09;;;;;;;;;;;9.60;99.90;;;;;;5037773;28;20004;-77
2021/10/04 05:12:37;;;;;;;;;;;9.60;99.90;;;;;;5037212;28;19926;-77
2021/10/04 05:15:05;;;;;;;;;;;9.60;99.90;;;;;;5030536;28;19925;-77
2021/10/04 05:17:36;;;;;;;;;;;9.60;99.90;;;;;;5037741;28;19936;-77
2021/10/04 05:20:06;;;;;;;;;;;9.60;99.90;;;;;;5036776;28;20024;-77
2021/10/04 05:22:35;;;;;;;;;;;9.60;99.90;;;;;;5037722;28;20007;-77
2021/10/04 05:25:04;;;;;;;;;;;9.60;99.90;;;;;;5037724;28;20347;-78
2021/10/04 05:27:32;;;;;;;;;;;9.70;99.90;;;;;;5037336;28;20353;-77
2021/10/04 05:30:00;;;;;;;;;;;9.70;99.90;;;;;;5037485;28;20024;-77
2021/10/04 05:32:28;;;;;;;;;;;9.60;99.90;;;;;;5037543;28;19935;-77
2021/10/04 05:34:56;;;;;;;;;;;9.70;99.90;;;;;;5037477;28;19935;-77
2021/10/04 05:37:24;;;;;;;;;;;9.70;99.90;;;;;;5037427;28;19936;-77
2021/10/04 05:39:51;;;;;;;;;;;9.60;99.90;;;;;;5036563;28;19924;-77
2021/10/04 05:42:18;;;;;;;;;;;9.70;99.90;;;;;;5036812;28;19936;-77
2021/10/04 05:44:45;;;;;;;;;;;9.60;99.90;;;;;;5037209;28;19951;-77
2021/10/04 05:47:12;;;;;;;;;;;9.60;99.90;;;;;;5037017;28;19925;-77
2021/10/04 05:49:39;;;;;;;;;;;9.60;99.90;;;;;;5037017;28;19928;-77
2021/10/04 05:52:06;;;;;;;;;;;9.60;99.90;;;;;;5036957;28;19925;-77
2021/10/04 05:54:35;;;;;;;;;;;9.60;99.90;;;;;;5037154;28;19925;-77
2021/10/04 05:57:01;;;;;;;;;;;9.60;99.90;;;;;;5036828;28;19935;-77
2021/10/04 05:59:28;;;;;;;;;;;9.60;99.90;;;;;;5036904;28;19926;-77
2021/10/04 06:01:55;;;;;;;;;;;9.70;99.90;;;;;;5036781;28;19925;-77
2021/10/04 06:04:22;;;;;;;;;;;9.60;99.90;;;;;;5036786;28;19925;-77
2021/10/04 06:06:49;;;;;;;;;;;9.60;99.90;;;;;;5036928;28;19937;-77
2021/10/04 06:09:16;;;;;;;;;;;9.70;99.90;;;;;;5036620;28;20348;-77
2021/10/04 06:11:44;;;;;;;;;;;9.60;99.90;;;;;;5036795;28;19925;-77
2021/10/04 06:14:11;;;;;;;;;;;9.70;99.90;;;;;;5036632;28;19936;-77
2021/10/04 06:16:37;;;;;;;;;;;9.70;99.90;;;;;;5036425;28;20283;-77
2021/10/04 06:19:04;;;;;;;;;;;9.70;99.90;;;;;;5036405;28;19925;-76
2021/10/04 06:21:31;;;;;;;;;;;9.70;99.90;;;;;;5036326;28;19936;-77
2021/10/04 06:23:58;;;;;;;;;;;9.70;99.90;;;;;;5036354;28;19936;-77
2021/10/04 06:26:25;;;;;;;;;;;9.70;99.90;;;;;;5036380;28;19925;-77
2021/10/04 06:28:53;;;;;;;;;;;9.70;99.90;;;;;;5036482;28;20251;-77
2021/10/04 06:31:20;;;;;;;;;;;9.70;99.90;;;;;;5036250;28;19943;-77
2021/10/04 06:33:47;;;;;;;;;;;9.60;99.90;;;;;;5036034;28;19932;-78
2021/10/04 06:36:13;;;;;;;;;;;9.70;99.90;;;;;;5036067;28;20357;-77
2021/10/04 06:38:40;;;;;;;;;;;9.70;99.90;;;;;;5036060;28;19932;-77
2021/10/04 06:41:07;;;;;;;;;;;9.70;99.90;;;;;;5035936;28;19935;-77
2021/10/04 06:43:34;;;;;;;;;;;9.70;99.90;;;;;;5036054;28;19932;-78
2021/10/04 06:46:07;;;;;;;;;;;9.70;99.90;;;;;;5035922;28;20270;-77
2021/10/04 06:48:34;;;;;;;;;;;9.70;99.90;;;;;;5035909;28;19925;-77
2021/10/04 06:51:01;;;;;;;;;;;9.80;99.90;;;;;;5035892;28;19933;-77
2021/10/04 06:53:27;;;;;;;;;;;9.70;99.90;;;;;;5035976;28;19936;-77
2021/10/04 06:55:54;;;;;;;;;;;9.70;99.90;;;;;;5035845;28;19935;-77
2021/10/04 06:58:21;;;;;;;;;;;9.70;99.90;;;;;;5035730;28;20347;-77
2021/10/04 07:00:48;;;;;;;;;;;9.70;99.90;;;;;;5035688;28;19931;-77
2021/10/04 07:03:16;;;;;;;;;;;9.70;99.90;;;;;;5035592;28;19926;-77
2021/10/04 07:05:45;;;;;;;;;;;9.70;99.90;;;;;;5035472;28;20335;-77
2021/10/04 07:08:12;;;;;;;;;;;9.70;99.90;;;;;;5035503;28;19933;-77
2021/10/04 07:10:39;;;;;;;;;;;9.70;99.90;;;;;;5035733;28;20381;-77
2021/10/04 07:13:06;;;;;;;;;;;9.70;99.90;;;;;;5035442;28;19925;-77
2021/10/04 07:15:33;;;;;;;;;;;9.70;99.90;;;;;;5035452;28;19936;-77
2021/10/04 07:18:00;;;;;;;;;;;9.70;99.90;;;;;;5035571;28;19929;-77
2021/10/04 07:20:28;;;;;;;;;;;9.70;99.90;;;;;;5035364;28;20019;-77
2021/10/04 07:22:58;;;;;;;;;;;9.80;99.90;;;;;;5035286;28;20359;-77
2021/10/04 07:25:24;;;;;;;;;;;9.80;99.90;;;;;;5035236;28;19998;-77
2021/10/04 07:27:51;;;;;;;;;;;9.90;99.90;;;;;;5035095;28;19935;-77
2021/10/04 07:30:18;;;;;;;;;;;9.90;99.90;;;;;;5035182;28;20335;-78
2021/10/04 07:32:45;;;;;;;;;;;10.00;99.90;;;;;;5035158;28;19931;-77
2021/10/04 07:35:12;;;;;;;;;;;10.10;99.90;;;;;;5035179;28;19925;-77
2021/10/04 07:37:40;;;;;;;;;;;10.20;99.90;;;;;;5035141;28;19925;-78
2021/10/04 07:40:07;;;;;;;;;;;10.20;99.90;;;;;;5034968;28;20275;-78
2021/10/04 07:42:34;;;;;;;;;;;10.30;99.90;;;;;;5034413;28;19932;-77
2021/10/04 07:45:01;;;;;;;;;;;10.30;99.90;;;;;;5034862;28;19928;-77
2021/10/04 07:47:28;;;;;;;;;;;10.30;99.90;;;;;;5034811;28;19925;-78
2021/10/04 07:49:55;;;;;;;;;;;10.40;99.90;;;;;;5035183;28;19935;-78
2021/10/04 07:52:22;;;;;;;;;;;10.40;99.90;;;;;;5035053;28;20278;-78
2021/10/04 07:54:50;;;;;;;;;;;10.50;99.90;;;;;;5034777;28;20359;-78
2021/10/04 07:57:17;;;;;;;;;;;10.60;99.90;;;;;;5034790;28;19925;-78
2021/10/04 07:59:44;;;;;;;;;;;10.60;99.90;;;;;;5035200;28;20031;-78
2021/10/04 08:02:11;;;;;;;;;;;10.60;99.90;;;;;;5034834;28;19937;-78
2021/10/04 08:04:37;;;;;;;;;;;10.60;99.90;;;;;;5034939;28;19932;-78
2021/10/04 08:07:04;;;;;;;;;;;10.60;99.90;;;;;;5034887;28;19925;-77
2021/10/04 08:09:31;;;;;;;;;;;10.60;99.90;;;;;;5034829;28;20248;-78
2021/10/04 08:11:59;;;;;;;;;;;10.60;99.90;;;;;;5034761;28;20251;-78
2021/10/04 08:14:26;;;;;;;;;;;10.60;99.90;;;;;;5034659;28;19936;-77
2021/10/04 08:16:53;;;;;;;;;;;10.60;99.90;;;;;;5034770;28;19925;-78
2021/10/04 08:19:20;;;;;;;;;;;10.60;99.90;;;;;;5034796;28;19935;-78
2021/10/04 08:21:47;;;;;;;;;;;10.60;99.90;;;;;;5034836;28;20020;-78
2021/10/04 08:24:14;;;;;;;;;;;10.60;99.90;;;;;;5034863;28;20279;-77
2021/10/04 08:26:41;;;;;;;;;;;10.70;99.90;;;;;;5034654;28;19925;-78
2021/10/04 08:29:09;;;;;;;;;;;10.80;99.90;;;;;;5034748;28;19987;-77
2021/10/04 08:31:36;;;;;;;;;;;10.80;99.90;;;;;;5034510;28;20302;-78
2021/10/04 08:34:03;;;;;;;;;;;10.90;99.90;;;;;;5034555;28;19951;-78
2021/10/04 08:36:30;;;;;;;;;;;11.00;99.90;;;;;;5034590;28;20233;-78
2021/10/04 08:38:57;;;;;;;;;;;11.10;99.90;;;;;;5034543;28;20327;-78
2021/10/04 08:41:24;;;;;;;;;;;11.10;99.90;;;;;;5034421;28;19925;-78
2021/10/04 08:43:51;;;;;;;;;;;11.00;99.90;;;;;;5034484;28;20332;-79
2021/10/04 08:46:19;;;;;;;;;;;11.00;99.90;;;;;;5034327;28;19932;-78
2021/10/04 08:48:46;;;;;;;;;;;10.90;99.90;;;;;;5034339;28;19925;-78
2021/10/04 08:51:13;;;;;;;;;;;10.90;99.90;;;;;;5034450;28;19925;-78
2021/10/04 08:53:40;;;;;;;;;;;10.90;99.90;;;;;;5034584;28;19925;-78
2021/10/04 08:56:07;;;;;;;;;;;10.90;99.90;;;;;;5036740;28;20588;-79
2021/10/04 08:58:35;;;;;;;;;;;10.90;99.90;;;;;;5037898;28;20355;-77
2021/10/04 09:01:02;;;;;;;;;;;10.90;99.90;;;;;;5030194;28;19929;-77
2021/10/04 09:03:41;;;;;;;;;;;10.90;99.90;;;;;;5037971;28;19925;-78
2021/10/04 09:06:08;;;;;;;;;;;10.90;99.90;;;;;;5037955;28;20339;-78
2021/10/04 09:08:46;;;;;;;;;;;10.90;99.90;;;;;;5037573;28;19925;-78
2021/10/04 09:11:14;;;;;;;;;;;10.90;99.90;;;;;;5037438;28;20262;-78
2021/10/04 09:13:40;;;;;;;;;;;10.90;99.90;;;;;;5037770;28;19925;-79
2021/10/04 09:16:07;;;;;;;;;;;11.00;99.90;;;;;;5037575;28;19925;-78
2021/10/04 09:18:35;;;;;;;;;;;11.00;99.90;;;;;;5037564;28;19925;-78
2021/10/04 09:21:05;;;;;;;;;;;11.10;99.90;;;;;;5037472;28;20054;-79
2021/10/04 09:23:44;;;;;;;;;;;11.20;99.90;;;;;;5037751;28;19925;-78
2021/10/04 09:26:11;;;;;;;;;;;11.20;99.90;;;;;;5037515;28;19925;-78
2021/10/04 09:28:38;;;;;;;;;;;11.30;99.90;;;;;;5037565;28;19925;-79
2021/10/04 09:31:18;;;;;;;;;;;11.30;99.90;;;;;;5037325;28;20027;-81
2021/10/04 09:34:01;;;;;;;;;;;11.30;99.90;;;;;;5037587;28;20036;-78
2021/10/04 09:36:29;;;;;;;;;;;11.30;99.90;;;;;;5037272;28;19933;-79
2021/10/04 09:39:09;;;;;;;;;;;11.30;99.90;;;;;;5037116;28;20355;-79
2021/10/04 09:41:36;;;;;;;;;;;11.30;99.90;;;;;;5036917;28;20016;-78
2021/10/04 09:44:03;;;;;;;;;;;11.30;99.90;;;;;;5037027;28;20343;-78
2021/10/04 09:46:31;;;;;;;;;;;11.40;99.90;;;;;;5037079;28;19926;-78
2021/10/04 09:49:01;;;;;;;;;;;11.40;99.90;;;;;;5037241;28;19925;-79
2021/10/04 09:51:30;;;;;;;;;;;11.50;99.90;;;;;;5036890;28;19991;-78
2021/10/04 09:54:09;;;;;;;;;;;11.60;99.90;;;;;;5036986;28;19926;-78
2021/10/04 09:56:36;;;;;;;;;;;11.70;99.90;;;;;;5036905;28;19925;-79
2021/10/04 09:59:02;;;;;;;;;;;11.70;99.90;;;;;;5037056;28;19952;-78
2021/10/04 10:01:29;;;;;;;;;;;11.80;99.90;;;;;;5036957;28;19931;-81
2021/10/04 10:03:56;;;;;;;;;;;11.80;99.90;;;;;;5036993;28;19936;-78
2021/10/04 10:06:23;;;;;;;;;;;11.90;99.90;;;;;;5036504;28;19929;-78
2021/10/04 10:08:51;;;;;;;;;;;12.00;99.90;;;;;;5036544;28;19925;-78
2021/10/04 10:11:18;;;;;;;;;;;12.00;99.90;;;;;;5036795;28;19935;-79
2021/10/04 10:13:45;;;;;;;;;;;12.10;99.90;;;;;;5036733;28;19933;-79
2021/10/04 10:16:13;;;;;;;;;;;12.20;99.90;;;;;;5036623;28;19925;-80
2021/10/04 10:18:41;;;;;;;;;;;12.30;99.90;;;;;;5036595;28;19932;-78
2021/10/04 10:21:08;;;;;;;;;;;12.40;99.90;;;;;;5036641;28;19946;-79
2021/10/04 10:23:45;;;;;;;;;;;12.40;99.90;;;;;;5036556;28;19939;-79
2021/10/04 10:26:29;;;;;;;;;;;12.40;99.90;;;;;;5036636;28;19925;-78
2021/10/04 10:29:17;;;;;;;;;;;12.50;99.90;;;;;;5022969;28;19931;-79
2021/10/04 10:32:14;;;;;;;;;;;12.60;99.90;;;;;;5031402;28;20032;-78
2021/10/04 10:34:57;;;;;;;;;;;12.70;99.90;;;;;;4956471;29;19926;-78
2021/10/04 10:37:25;;;;;;;;;;;12.80;99.90;;;;;;4956503;28;19926;-79
2021/10/04 10:39:53;;;;;;;;;;;12.90;99.90;;;;;;4956396;29;19933;-79
2021/10/04 10:42:21;;;;;;;;;;;12.90;99.90;;;;;;4941346;29;19927;-78
2021/10/04 10:45:08;;;;;;;;;;;13.00;99.90;;;;;;4937141;29;19927;-79
2021/10/04 10:47:54;;;;;;;;;;;13.00;99.90;;;;;;4937192;29;20002;-79
2021/10/04 10:50:27;;;;;;;;;;;13.00;99.90;;;;;;4937185;29;19948;-78
2021/10/04 10:53:02;;;;;;;;;;;12.90;99.90;;;;;;4937093;29;19999;-79
2021/10/04 10:55:29;;;;;;;;;;;12.80;99.90;;;;;;4937019;29;19927;-78
2021/10/04 10:58:00;;;;;;;;;;;12.80;99.90;;;;;;4936803;29;19937;-80
2021/10/04 11:00:27;;;;;;;;;;;12.70;99.90;;;;;;4937040;29;19934;-78
2021/10/04 11:02:55;;;;;;;;;;;12.80;99.90;;;;;;4936827;29;19930;-79
2021/10/04 11:05:40;;;;;;;;;;;12.70;99.90;;;;;;4936929;29;20381;-80
2021/10/04 11:08:09;;;;;;;;;;;12.70;99.90;;;;;;4953206;28;20033;-79
2021/10/04 11:10:36;;;;;;;;;;;12.70;99.90;;;;;;5015967;28;19925;-78
2021/10/04 11:13:21;;;;;;;;;;;12.80;99.90;;;;;;5015789;28;20391;-78
2021/10/04 11:15:48;;;;;;;;;;;12.80;99.90;;;;;;5015636;28;19926;-79
2021/10/04 11:18:15;;;;;;;;;;;12.90;99.90;;;;;;5014870;28;20271;-79
2021/10/04 11:20:42;;;;;;;;;;;13.00;99.90;;;;;;5015609;28;19936;-79
2021/10/04 11:23:10;;;;;;;;;;;13.20;99.90;;;;;;5015609;28;19925;-80
2021/10/04 11:25:40;;;;;;;;;;;13.30;99.90;;;;;;5015649;28;19926;-80
2021/10/04 11:28:07;;;;;;;;;;;13.50;99.90;;;;;;5015354;28;20339;-79
2021/10/04 11:30:49;;;;;;;;;;;13.60;99.90;;;;;;5015556;28;19988;-79
2021/10/04 11:33:16;;;;;;;;;;;13.70;99.90;;;;;;5015333;28;20348;-79
2021/10/04 11:35:54;;;;;;;;;;;13.70;99.90;;;;;;5015432;28;19936;-79
2021/10/04 11:38:22;;;;;;;;;;;13.70;99.90;;;;;;5015562;28;19926;-80
2021/10/04 11:40:52;;;;;;;;;;;13.70;99.90;;;;;;5018030;28;20352;-77
2021/10/04 11:43:21;;;;;;;;;;;13.80;99.90;;;;;;5034973;28;19925;-78
2021/10/04 11:45:51;;;;;;;;;;;13.80;99.90;;;;;;5027976;28;19925;-78
2021/10/04 11:48:29;;;;;;;;;;;13.90;99.90;;;;;;5034457;28;20140;-78
2021/10/04 11:50:57;;;;;;;;;;;13.90;99.90;;;;;;5035151;28;19935;-77
2021/10/04 11:53:30;;;;;;;;;;;14.00;99.90;;;;;;5034918;28;19929;-78
2021/10/04 11:55:58;;;;;;;;;;;14.00;99.90;;;;;;5034870;28;20335;-77
2021/10/04 11:58:27;;;;;;;;;;;13.90;99.90;;;;;;5034817;28;19925;-77
2021/10/04 12:00:55;;;;;;;;;;;13.90;99.90;;;;;;5034922;28;19935;-77
2021/10/04 12:03:35;;;;;;;;;;;13.80;99.90;;;;;;5034774;28;19935;-79
2021/10/04 12:06:06;;;;;;;;;;;13.80;99.90;;;;;;5034823;28;19936;-81
2021/10/04 12:08:38;;;;;;;;;;;13.70;99.90;;;;;;5034652;28;20381;-79
2021/10/04 12:11:07;;;;;;;;;;;13.70;99.90;;;;;;5035187;28;19929;-79
2021/10/04 12:13:36;;;;;;;;;;;13.60;99.90;;;;;;5034705;28;19929;-79
2021/10/04 12:16:05;;;;;;;;;;;13.60;99.90;;;;;;5034774;28;19935;-79
2021/10/04 12:18:34;;;;;;;;;;;13.60;99.90;;;;;;5034601;28;19931;-78
2021/10/04 12:21:17;;;;;;;;;;;13.60;99.90;;;;;;5034750;28;19929;-78
2021/10/04 12:24:04;;;;;;;;;;;13.60;99.90;;;;;;5031840;28;19929;-79
2021/10/04 12:26:32;;;;;;;;;;;13.70;99.90;;;;;;5034756;28;19937;-79
2021/10/04 12:29:00;;;;;;;;;;;13.80;99.90;;;;;;5035279;28;19932;-77
2021/10/04 12:31:31;;;;;;;;;;;13.80;99.90;;;;;;5038567;28;19936;-78
2021/10/04 12:33:59;;;;;;;;;;;13.80;99.90;;;;;;5038437;28;19935;-80
2021/10/04 12:36:27;;;;;;;;;;;13.80;99.90;;;;;;5038510;28;19925;-76
2021/10/04 12:38:57;;;;;;;;;;;13.80;99.90;;;;;;5038239;28;19933;-78
2021/10/04 12:41:38;;;;;;;;;;;13.80;99.90;;;;;;5038089;28;20321;-77
2021/10/04 12:44:10;;;;;;;;;;;13.80;99.90;;;;;;5038421;28;19933;-77
2021/10/04 12:46:38;;;;;;;;;;;13.80;99.90;;;;;;5038446;28;19925;-76
2021/10/04 12:49:17;;;;;;;;;;;13.90;99.90;;;;;;5037918;28;20286;-77
2021/10/04 12:51:46;;;;;;;;;;;13.90;99.90;;;;;;5038242;28;19929;-78
2021/10/04 12:54:14;;;;;;;;;;;13.90;99.90;;;;;;5038148;28;19933;-78
2021/10/04 12:56:45;;;;;;;;;;;13.90;99.90;;;;;;5038156;28;19983;-78
2021/10/04 12:59:13;;;;;;;;;;;13.90;99.90;;;;;;5037153;28;19967;-77
2021/10/04 13:01:49;;;;;;;;;;;13.80;99.90;;;;;;5038037;28;19936;-78
2021/10/04 13:04:19;;;;;;;;;;;13.70;99.90;;;;;;5037910;28;19925;-77
2021/10/04 13:06:48;;;;;;;;;;;13.70;99.90;;;;;;5037780;28;20352;-78
2021/10/04 13:09:17;;;;;;;;;;;13.70;99.90;;;;;;5037655;28;20384;-77
2021/10/04 13:11:47;;;;;;;;;;;13.80;99.90;;;;;;5037974;28;20270;-76
2021/10/04 13:14:15;;;;;;;;;;;13.80;99.90;;;;;;5037693;28;20402;-76
2021/10/04 13:16:43;;;;;;;;;;;13.90;99.90;;;;;;5037740;28;20336;-76
2021/10/04 13:19:11;;;;;;;;;;;13.90;99.90;;;;;;5037647;28;19925;-76
2021/10/04 13:21:40;;;;;;;;;;;13.80;99.90;;;;;;5038161;28;19980;-77
2021/10/04 13:24:08;;;;;;;;;;;13.80;99.90;;;;;;5037699;28;19925;-79
2021/10/04 13:26:37;;;;;;;;;;;13.70;99.90;;;;;;5037463;28;19933;-78
2021/10/04 13:29:06;;;;;;;;;;;13.70;99.90;;;;;;5038690;28;19935;-78
2021/10/04 13:31:34;;;;;;;;;;;13.60;99.90;;;;;;5037702;28;19925;-80
2021/10/04 13:34:01;;;;;;;;;;;13.50;99.90;;;;;;5037550;28;19925;-78
2021/10/04 13:36:28;;;;;;;;;;;13.50;99.90;;;;;;5037631;28;19924;-77
2021/10/04 13:38:57;;;;;;;;;;;13.50;99.90;;;;;;5037224;28;19931;-76
2021/10/04 13:41:24;;;;;;;;;;;13.40;99.90;;;;;;5036600;28;19925;-76
2021/10/04 13:43:54;;;;;;;;;;;13.30;99.90;;;;;;5037203;28;19925;-76
2021/10/04 13:46:22;;;;;;;;;;;13.30;99.90;;;;;;5037105;28;19925;-79
2021/10/04 13:48:51;;;;;;;;;;;13.30;99.90;;;;;;5036941;28;19936;-80
2021/10/04 13:51:19;;;;;;;;;;;13.20;99.90;;;;;;5036913;28;20367;-80
2021/10/04 13:53:52;;;;;;;;;;;13.20;99.90;;;;;;5037192;28;19925;-78
2021/10/04 13:56:21;;;;;;;;;;;13.20;99.90;;;;;;5037089;28;20032;-77
2021/10/04 13:58:49;;;;;;;;;;;13.20;99.90;;;;;;5036890;28;19947;-77
2021/10/04 14:01:17;;;;;;;;;;;13.20;99.90;;;;;;5036845;28;20002;-78
2021/10/04 14:03:45;;;;;;;;;;;13.10;99.90;;;;;;5036801;28;19940;-78
2021/10/04 14:06:14;;;;;;;;;;;13.10;99.90;;;;;;5037519;28;19925;-79
2021/10/04 14:08:41;;;;;;;;;;;13.10;99.90;;;;;;5036748;28;19933;-79
2021/10/04 14:11:09;;;;;;;;;;;13.10;99.90;;;;;;5036982;28;19948;-77
2021/10/04 14:13:37;;;;;;;;;;;13.20;99.90;;;;;;5036799;28;19925;-76
2021/10/04 14:16:05;;;;;;;;;;;13.20;99.90;;;;;;5036796;28;20003;-79
2021/10/04 14:18:35;;;;;;;;;;;13.20;99.90;;;;;;5036554;28;20274;-77
2021/10/04 14:21:03;;;;;;;;;;;13.20;99.90;;;;;;5036501;28;19925;-77
2021/10/04 14:23:31;;;;;;;;;;;13.20;99.90;;;;;;5036483;28;19925;-79
2021/10/04 14:25:59;;;;;;;;;;;13.20;99.90;;;;;;5036344;28;19939;-78
2021/10/04 14:28:26;;;;;;;;;;;13.30;99.90;;;;;;5036259;28;19925;-77
2021/10/04 14:30:53;;;;;;;;;;;13.30;99.90;;;;;;5036215;28;19925;-79
2021/10/04 14:33:25;;;;;;;;;;;13.30;99.90;;;;;;5036280;28;19925;-78
2021/10/04 14:36:08;;;;;;;;;;;13.20;99.90;;;;;;5035665;28;20247;-78
2021/10/04 14:38:35;;;;;;;;;;;13.20;99.90;;;;;;5035459;28;20035;-77
2021/10/04 14:41:04;;;;;;;;;;;13.20;99.90;;;;;;5035677;28;19925;-78